createdAt,value
2023-03-23T15:57:52.734Z,3.70
2023-03-23T16:00:21.512Z,3.80
2023-03-23T16:02:55.147Z,4.20
2023-03-23T16:05:21.956Z,3.80
2023-03-23T16:07:48.781Z,4.57
2023-03-23T16:10:21.363Z,4.30
2023-03-23T16:12:48.232Z,4.23
2023-03-23T16:15:15.782Z,4.30
2023-03-23T16:17:43.393Z,3.87
2023-03-23T16:20:22.194Z,3.73
2023-03-23T16:22:50.903Z,3.93
2023-03-23T16:25:19.039Z,3.53
2023-03-23T16:27:51.282Z,3.83
2023-03-23T16:30:27.182Z,3.90
2023-03-23T16:32:55.464Z,4.07
2023-03-23T16:35:22.820Z,6.03
2023-03-23T16:38:07.679Z,8.17
2023-03-23T16:40:35.553Z,8.83
2023-03-23T16:43:02.139Z,6.97
2023-03-23T16:45:43.127Z,4.90
2023-03-23T16:48:11.993Z,7.33
2023-03-23T16:50:39.216Z,6.73
2023-03-23T16:53:08.127Z,4.77
2023-03-23T16:55:35.849Z,4.30
2023-03-23T16:58:15.418Z,4.60
2023-03-23T17:00:44.767Z,9.07
2023-03-23T17:03:11.516Z,6.50
2023-03-23T17:05:38.535Z,4.80
2023-03-23T17:08:05.912Z,4.00
2023-03-23T17:10:32.989Z,3.80
2023-03-23T17:12:59.950Z,3.93
2023-03-23T17:15:26.875Z,3.50
2023-03-23T17:17:55.155Z,3.30
2023-03-23T17:20:23.082Z,3.63
2023-03-23T17:22:50.305Z,3.97
2023-03-23T17:25:16.999Z,3.43
2023-03-23T17:27:43.837Z,4.20
2023-03-23T17:30:11.582Z,4.00
2023-03-23T17:32:38.404Z,3.40
2023-03-23T17:35:06.827Z,3.37
2023-03-23T17:37:34.843Z,3.30
2023-03-23T17:40:02.289Z,3.33
2023-03-23T17:42:30.129Z,8.13
2023-03-23T17:44:56.767Z,11.40
2023-03-23T17:47:24.225Z,7.47
2023-03-23T17:49:51.490Z,7.70
2023-03-23T17:52:20.233Z,9.60
2023-03-23T17:54:47.039Z,12.87
2023-03-23T17:57:15.927Z,13.37
2023-03-23T17:59:42.602Z,12.20
2023-03-23T18:02:11.167Z,13.13
2023-03-23T18:04:37.912Z,15.50
2023-03-23T18:07:05.665Z,38.03
2023-03-23T18:09:35.153Z,24.97
2023-03-23T18:12:04.529Z,26.37
2023-03-23T18:14:34.121Z,11.63
2023-03-23T18:17:02.266Z,15.73
2023-03-23T18:19:29.078Z,14.40
2023-03-23T18:22:10.976Z,16.57
2023-03-23T18:24:52.737Z,17.53
2023-03-23T18:27:19.320Z,16.87
2023-03-23T18:29:46.220Z,13.93
2023-03-23T18:32:13.006Z,10.43
2023-03-23T18:34:43.583Z,10.60
2023-03-23T18:37:13.049Z,8.07
2023-03-23T18:39:39.747Z,7.33
2023-03-23T18:42:07.026Z,5.67
2023-03-23T18:44:34.479Z,5.00
2023-03-23T18:47:01.423Z,5.17
2023-03-23T18:49:29.610Z,6.97
2023-03-23T18:52:01.503Z,8.27
2023-03-23T18:54:29.059Z,7.00
2023-03-23T18:56:56.069Z,7.57
2023-03-23T18:59:30.427Z,7.10
2023-03-23T19:01:57.965Z,6.63
2023-03-23T19:04:25.228Z,6.53
2023-03-23T19:06:51.878Z,7.17
2023-03-23T19:09:21.270Z,6.87
2023-03-23T19:11:48.135Z,6.80
2023-03-23T19:14:17.226Z,6.67
2023-03-23T19:16:43.990Z,6.20
2023-03-23T19:19:13.134Z,7.20
2023-03-23T19:21:46.848Z,6.57
2023-03-23T19:24:14.128Z,6.13
2023-03-23T19:26:43.454Z,7.87
2023-03-23T19:29:26.535Z,7.33
2023-03-23T19:31:55.399Z,6.00
2023-03-23T19:34:24.086Z,4.90
2023-03-23T19:36:59.486Z,4.73
2023-03-23T19:39:31.374Z,4.00
2023-03-23T19:41:58.496Z,4.10
2023-03-23T19:44:25.602Z,3.90
2023-03-23T19:46:53.467Z,4.23
2023-03-23T19:49:20.224Z,3.93
2023-03-23T19:51:46.891Z,4.50
2023-03-23T19:54:13.569Z,4.33
2023-03-23T19:56:40.507Z,3.70
2023-03-23T19:59:10.573Z,4.03
2023-03-23T20:01:37.432Z,4.60
2023-03-23T20:04:05.341Z,4.27
2023-03-23T20:06:32.819Z,4.73
2023-03-23T20:09:03.115Z,4.40
2023-03-23T20:11:30.788Z,4.40
2023-03-23T20:13:57.841Z,4.30
2023-03-23T20:16:26.199Z,5.50
2023-03-23T20:18:53.656Z,5.07
2023-03-23T20:21:22.836Z,5.30
2023-03-23T20:23:53.154Z,5.77
2023-03-23T20:26:32.686Z,7.07
2023-03-23T20:29:00.691Z,7.27
2023-03-23T20:31:30.378Z,10.23
2023-03-23T20:34:03.117Z,8.47
2023-03-23T20:36:35.055Z,8.27
2023-03-23T20:39:10.707Z,7.47
2023-03-23T20:41:38.921Z,7.07
2023-03-23T20:44:07.892Z,6.03
2023-03-23T20:46:35.340Z,5.90
2023-03-23T20:49:02.739Z,5.07
2023-03-23T20:51:29.820Z,5.23
2023-03-23T20:53:56.451Z,6.50
2023-03-23T20:56:24.486Z,5.17
2023-03-23T20:58:51.439Z,5.70
2023-03-23T21:01:18.196Z,6.37
2023-03-23T21:03:44.927Z,6.33
2023-03-23T21:06:11.981Z,6.33
2023-03-23T21:08:40.808Z,6.03
2023-03-23T21:11:10.370Z,7.57
2023-03-23T21:13:37.085Z,6.87
2023-03-23T21:16:05.217Z,7.73
2023-03-23T21:18:32.166Z,7.37
2023-03-23T21:21:00.482Z,6.70
2023-03-23T21:23:29.695Z,5.97
2023-03-23T21:26:02.230Z,6.47
2023-03-23T21:28:29.593Z,6.60
2023-03-23T21:31:05.201Z,6.90
2023-03-23T21:33:32.240Z,6.87
2023-03-23T21:36:00.431Z,6.23
2023-03-23T21:38:28.083Z,6.97
2023-03-23T21:40:56.386Z,6.73
2023-03-23T21:43:27.577Z,7.00
2023-03-23T21:45:56.620Z,6.93
2023-03-23T21:48:24.081Z,6.70
2023-03-23T21:50:50.874Z,6.57
2023-03-23T21:53:20.728Z,6.53
2023-03-23T21:55:51.843Z,6.67
2023-03-23T21:58:20.200Z,6.30
2023-03-23T22:00:49.970Z,5.60
2023-03-23T22:03:18.948Z,5.53
2023-03-23T22:05:46.474Z,6.60
2023-03-23T22:08:13.992Z,6.27
2023-03-23T22:10:43.001Z,5.50
2023-03-23T22:13:31.682Z,5.90
2023-03-23T22:16:01.126Z,6.27
2023-03-23T22:18:28.639Z,6.33
2023-03-23T22:20:56.762Z,5.30
2023-03-23T22:23:23.432Z,4.60
2023-03-23T22:25:50.154Z,5.03
2023-03-23T22:28:19.530Z,5.17
2023-03-23T22:30:47.709Z,5.60
2023-03-23T22:33:14.747Z,5.27
2023-03-23T22:35:41.483Z,5.77
2023-03-23T22:38:08.159Z,4.30
2023-03-23T22:40:34.982Z,4.50
2023-03-23T22:43:03.259Z,5.07
2023-03-23T22:45:30.238Z,6.47
2023-03-23T22:47:58.158Z,5.90
2023-03-23T22:50:25.010Z,6.40
2023-03-23T22:52:51.739Z,7.37
2023-03-23T22:55:18.572Z,6.40
2023-03-23T22:57:45.892Z,6.70
2023-03-23T23:00:18.670Z,6.20
2023-03-23T23:02:45.843Z,6.70
2023-03-23T23:05:13.883Z,6.37
2023-03-23T23:07:40.959Z,7.93
2023-03-23T23:10:08.262Z,7.97
2023-03-23T23:12:35.417Z,8.67
2023-03-23T23:15:04.656Z,8.97
2023-03-23T23:17:35.108Z,9.40
2023-03-23T23:20:05.774Z,8.50
2023-03-23T23:22:33.550Z,8.03
2023-03-23T23:25:01.251Z,8.43
2023-03-23T23:27:27.935Z,8.83
2023-03-23T23:29:54.680Z,7.70
2023-03-23T23:32:21.554Z,7.27
2023-03-23T23:34:48.516Z,7.03
2023-03-23T23:37:15.416Z,6.57
2023-03-23T23:39:42.623Z,7.13
2023-03-23T23:42:09.810Z,6.93
2023-03-23T23:44:36.835Z,6.50
2023-03-23T23:47:04.586Z,8.00
2023-03-23T23:49:34.216Z,9.10
2023-03-23T23:52:01.170Z,8.67
2023-03-23T23:54:30.819Z,8.53
2023-03-23T23:56:59.340Z,7.73
2023-03-23T23:59:26.696Z,7.57
